Time;durP1;ratioP1;P1;durP2;ratioP2;P2;SDS_P1;SDS_P2;PMS_P1;PMS_P2;Temp;Humidity;BMP_temperature;BMP_pressure;BME280_temperature;BME280_humidity;BME280_pressure;Samples;Min_cycle;Max_cycle;Signal;HPM_P1;HPM_P2
2023/11/30 00:01:57;;;;;;;15.17;11.33;;;-1.20;99.90;;;;;;5036026;28;20479;-79
2023/11/30 00:04:26;;;;;;;16.03;11.80;;;-1.20;99.90;;;;;;5020374;28;20444;-79
2023/11/30 00:06:55;;;;;;;12.40;11.10;;;-1.20;99.90;;;;;;5018925;28;20452;-79
2023/11/30 00:09:23;;;;;;;17.17;11.40;;;-1.20;99.90;;;;;;5018866;28;20905;-78
2023/11/30 00:11:53;;;;;;;13.73;11.07;;;-1.20;99.90;;;;;;5019163;28;20467;-78
2023/11/30 00:14:22;;;;;;;14.30;11.27;;;-1.20;99.90;;;;;;5018722;28;20456;-78
2023/11/30 00:16:50;;;;;;;15.30;11.13;;;-1.30;99.90;;;;;;5019145;28;20440;-78
2023/11/30 00:19:19;;;;;;;12.73;10.93;;;-1.20;99.90;;;;;;5018705;28;20460;-79
2023/11/30 00:21:47;;;;;;;13.97;11.50;;;-1.20;99.90;;;;;;5019210;28;20491;-78
2023/11/30 00:24:15;;;;;;;15.93;11.47;;;-1.20;99.90;;;;;;5019249;28;20448;-78
2023/11/30 00:26:44;;;;;;;17.40;12.97;;;-1.20;99.90;;;;;;5021965;28;20562;-78
2023/11/30 00:29:13;;;;;;;13.70;11.20;;;-1.20;99.90;;;;;;5036885;28;20462;-78
2023/11/30 00:31:42;;;;;;;15.23;11.53;;;-1.20;99.90;;;;;;5035567;28;20890;-78
2023/11/30 00:34:10;;;;;;;14.80;12.20;;;-1.20;99.90;;;;;;5020124;28;20448;-78
2023/11/30 00:36:38;;;;;;;16.77;12.27;;;-1.20;99.90;;;;;;5040314;28;20452;-79
2023/11/30 00:39:08;;;;;;;13.40;11.13;;;-1.20;99.90;;;;;;5022632;28;20440;-79
2023/11/30 00:41:36;;;;;;;14.60;12.03;;;-1.20;99.90;;;;;;5022804;28;20519;-79
2023/11/30 00:44:04;;;;;;;15.40;11.90;;;-1.20;99.90;;;;;;5023743;28;20447;-78
2023/11/30 00:46:34;;;;;;;18.73;12.60;;;-1.10;99.90;;;;;;5022415;28;20475;-79
2023/11/30 00:49:02;;;;;;;16.87;13.07;;;-1.10;99.90;;;;;;5022596;28;20543;-79
2023/11/30 00:51:30;;;;;;;15.90;12.07;;;-1.10;99.90;;;;;;5022581;28;20456;-79
2023/11/30 00:53:59;;;;;;;16.63;13.33;;;-1.10;99.90;;;;;;5038991;28;20452;-79
2023/11/30 00:56:27;;;;;;;13.47;10.70;;;-1.10;99.90;;;;;;5038671;28;20454;-79
2023/11/30 00:58:56;;;;;;;15.70;12.03;;;-1.10;99.90;;;;;;5022171;28;20439;-78
2023/11/30 01:01:25;;;;;;;16.73;12.40;;;-1.10;99.90;;;;;;5038562;28;20451;-78
2023/11/30 01:03:54;;;;;;;15.93;12.23;;;-1.10;99.90;;;;;;5021955;28;20538;-79
2023/11/30 01:06:23;;;;;;;16.93;13.00;;;-1.10;99.90;;;;;;5038041;28;20993;-78
2023/11/30 01:08:51;;;;;;;14.43;12.80;;;-1.10;99.90;;;;;;5021763;28;20502;-78
2023/11/30 01:11:19;;;;;;;16.00;12.87;;;-1.10;99.90;;;;;;5021999;28;20454;-79
2023/11/30 01:13:48;;;;;;;15.20;11.40;;;-1.10;99.90;;;;;;5021196;28;20448;-78
2023/11/30 01:16:16;;;;;;;14.20;12.13;;;-1.10;99.90;;;;;;5021485;28;20435;-78
2023/11/30 01:18:44;;;;;;;15.30;11.67;;;-1.20;99.90;;;;;;5021077;28;20471;-78
2023/11/30 01:21:14;;;;;;;14.70;11.83;;;-1.20;99.90;;;;;;5020914;28;20815;-79
2023/11/30 01:23:43;;;;;;;15.43;11.93;;;-1.20;99.90;;;;;;5041977;28;20534;-79
2023/11/30 01:26:11;;;;;;;13.80;11.17;;;-1.20;99.90;;;;;;5041152;28;20483;-79
2023/11/30 01:28:40;;;;;;;15.47;11.50;;;-1.20;99.90;;;;;;5024660;28;20443;-79
2023/11/30 01:31:09;;;;;;;14.60;11.63;;;-1.30;99.90;;;;;;5024470;28;20480;-79
2023/11/30 01:33:37;;;;;;;14.23;11.20;;;-1.20;99.90;;;;;;5024616;28;20468;-79
2023/11/30 01:36:06;;;;;;;14.70;12.10;;;-1.30;99.90;;;;;;5040924;28;20452;-78
2023/11/30 01:38:36;;;;;;;15.40;12.00;;;-1.30;99.90;;;;;;5024769;28;20471;-79
2023/11/30 01:41:04;;;;;;;17.60;12.63;;;-1.30;99.90;;;;;;5024592;28;20452;-79
2023/11/30 01:43:32;;;;;;;14.50;11.00;;;-1.30;99.90;;;;;;5024041;28;20607;-79
2023/11/30 01:46:00;;;;;;;14.40;11.07;;;-1.40;99.90;;;;;;5039428;28;20533;-79
2023/11/30 01:48:33;;;;;;;12.97;10.60;;;-1.40;99.90;;;;;;5040493;28;20467;-79
2023/11/30 01:51:04;;;;;;;13.03;10.20;;;-1.40;99.90;;;;;;5026239;28;20507;-79
2023/11/30 01:53:33;;;;;;;16.00;11.93;;;-1.40;99.90;;;;;;5020941;28;20459;-78
2023/11/30 01:56:03;;;;;;;17.20;10.97;;;-1.40;99.90;;;;;;5020834;28;20459;-78
2023/11/30 01:58:32;;;;;;;15.00;10.40;;;-1.50;99.90;;;;;;5022118;28;20444;-78
2023/11/30 02:01:01;;;;;;;16.93;12.23;;;-1.40;99.90;;;;;;5037638;28;20452;-78
2023/11/30 02:03:30;;;;;;;15.40;10.77;;;-1.50;99.90;;;;;;5037943;28;20571;-78
2023/11/30 02:06:00;;;;;;;13.90;10.77;;;-1.50;99.90;;;;;;5020658;28;20994;-78
2023/11/30 02:08:28;;;;;;;18.87;10.80;;;-1.50;99.90;;;;;;5021090;28;20439;-78
2023/11/30 02:10:57;;;;;;;14.90;12.67;;;-1.50;99.90;;;;;;5020024;28;20452;-78
2023/11/30 02:13:26;;;;;;;16.63;13.00;;;-1.60;99.90;;;;;;5036784;28;20468;-78
2023/11/30 02:15:55;;;;;;;13.93;11.50;;;-1.60;99.90;;;;;;5020426;28;20467;-78
2023/11/30 02:18:23;;;;;;;14.03;10.77;;;-1.60;99.90;;;;;;5036749;28;20822;-78
2023/11/30 02:20:51;;;;;;;12.93;10.57;;;-1.60;99.90;;;;;;5036794;28;20448;-77
2023/11/30 02:23:21;;;;;;;13.00;11.70;;;-1.60;99.90;;;;;;5019335;28;20475;-78
2023/11/30 02:25:49;;;;;;;17.37;11.20;;;-1.60;99.90;;;;;;5019494;28;20869;-78
2023/11/30 02:28:17;;;;;;;17.13;12.37;;;-1.70;99.90;;;;;;5035708;28;20534;-78
2023/11/30 02:30:48;;;;;;;15.70;12.13;;;-1.70;99.90;;;;;;5021058;28;20494;-78
2023/11/30 02:33:16;;;;;;;13.00;10.93;;;-1.70;99.90;;;;;;5019047;28;20471;-78
2023/11/30 02:35:44;;;;;;;14.13;12.10;;;-1.70;99.90;;;;;;5018713;28;20478;-78
2023/11/30 02:38:13;;;;;;;15.53;12.10;;;-1.80;99.90;;;;;;5035295;28;20458;-78
2023/11/30 02:40:42;;;;;;;22.63;11.73;;;-1.70;99.90;;;;;;5020358;28;20498;-78
2023/11/30 02:43:10;;;;;;;13.70;11.27;;;-1.80;99.90;;;;;;5035477;28;20888;-78
2023/11/30 02:45:39;;;;;;;17.23;11.10;;;-1.80;99.90;;;;;;5019625;28;20964;-78
2023/11/30 02:48:07;;;;;;;15.43;12.50;;;-1.80;99.90;;;;;;5034927;28;20471;-78
2023/11/30 02:50:35;;;;;;;14.83;12.33;;;-1.80;99.90;;;;;;5019601;28;20436;-78
2023/11/30 02:53:04;;;;;;;15.00;11.23;;;-1.80;99.90;;;;;;5017682;28;20476;-78
2023/11/30 02:55:32;;;;;;;15.43;11.87;;;-1.90;99.90;;;;;;5017573;28;20464;-78
2023/11/30 02:58:02;;;;;;;13.30;10.93;;;-1.90;99.90;;;;;;5017786;28;20440;-78
2023/11/30 03:00:30;;;;;;;16.20;12.70;;;-1.90;99.90;;;;;;5018364;28;20478;-77
2023/11/30 03:02:58;;;;;;;17.70;13.10;;;-1.90;99.90;;;;;;5034735;28;20471;-77
2023/11/30 03:05:26;;;;;;;17.13;12.90;;;-1.90;99.90;;;;;;5033944;28;21015;-77
2023/11/30 03:07:53;;;;;;;13.60;11.23;;;-1.90;99.90;;;;;;5017158;28;20471;-79
2023/11/30 03:10:22;;;;;;;14.83;11.70;;;-1.90;99.90;;;;;;5015818;28;20566;-77
2023/11/30 03:12:52;;;;;;;18.30;13.20;;;-2.00;99.90;;;;;;5032365;28;21016;-77
2023/11/30 03:15:22;;;;;;;14.80;11.83;;;-2.00;99.90;;;;;;5018922;28;20435;-78
2023/11/30 03:17:50;;;;;;;16.57;12.23;;;-2.00;99.90;;;;;;5033844;28;20452;-78
2023/11/30 03:20:19;;;;;;;17.47;12.70;;;-2.00;99.90;;;;;;5017097;28;20476;-78
2023/11/30 03:22:47;;;;;;;19.13;12.83;;;-2.00;99.90;;;;;;5033605;28;20583;-78
2023/11/30 03:25:16;;;;;;;13.67;11.20;;;-2.00;99.90;;;;;;5017067;28;20466;-78
2023/11/30 03:27:44;;;;;;;14.03;11.97;;;-2.00;99.90;;;;;;5017131;28;20482;-78
2023/11/30 03:30:13;;;;;;;16.63;12.13;;;-2.00;99.90;;;;;;5016689;28;20444;-78
2023/11/30 03:32:42;;;;;;;12.80;11.07;;;-2.00;99.90;;;;;;5033049;28;20479;-78
2023/11/30 03:35:10;;;;;;;12.73;10.93;;;-2.00;99.90;;;;;;5016363;28;20450;-78
2023/11/30 03:37:40;;;;;;;13.83;11.80;;;-2.10;99.90;;;;;;5016251;28;20448;-78
2023/11/30 03:40:09;;;;;;;16.10;11.63;;;-2.10;99.90;;;;;;5015771;28;20805;-77
2023/11/30 03:42:38;;;;;;;13.83;11.03;;;-2.10;99.90;;;;;;5030598;28;20875;-77
2023/11/30 03:45:07;;;;;;;15.23;12.23;;;-2.10;99.90;;;;;;5016881;28;20447;-77
2023/11/30 03:47:35;;;;;;;15.43;11.70;;;-2.10;99.90;;;;;;5015695;28;20468;-77
2023/11/30 03:50:05;;;;;;;16.20;12.07;;;-2.10;99.90;;;;;;5015309;28;20451;-77
2023/11/30 03:52:34;;;;;;;17.97;12.63;;;-2.10;99.90;;;;;;5031679;28;20479;-78
2023/11/30 03:55:02;;;;;;;17.43;13.40;;;-2.10;99.90;;;;;;5032013;28;20448;-78
2023/11/30 03:57:30;;;;;;;17.03;11.90;;;-2.10;99.90;;;;;;5015542;28;20526;-78
2023/11/30 03:59:58;;;;;;;21.00;15.00;;;-2.10;99.90;;;;;;5031830;28;20818;-78
2023/11/30 04:02:26;;;;;;;27.90;16.13;;;-2.10;99.90;;;;;;5032002;28;20834;-78
2023/11/30 04:04:55;;;;;;;30.50;15.60;;;-2.10;99.90;;;;;;5014920;28;20502;-78
2023/11/30 04:07:29;;;;;;;26.90;15.17;;;-2.00;99.90;;;;;;5015417;28;20467;-78
2023/11/30 04:09:57;;;;;;;25.20;16.10;;;-2.00;99.90;;;;;;5016329;28;20451;-78
2023/11/30 04:12:26;;;;;;;28.37;16.60;;;-2.00;99.90;;;;;;5017560;28;20530;-78
2023/11/30 04:14:54;;;;;;;24.40;14.90;;;-2.00;99.90;;;;;;5017491;28;20444;-78
2023/11/30 04:17:23;;;;;;;27.53;17.47;;;-2.00;99.90;;;;;;5033629;28;20447;-78
2023/11/30 04:19:51;;;;;;;28.93;16.13;;;-2.00;99.90;;;;;;5033811;28;20447;-78
2023/11/30 04:22:19;;;;;;;27.30;16.70;;;-1.90;99.90;;;;;;5034255;28;20475;-78
2023/11/30 04:24:49;;;;;;;29.13;17.30;;;-1.90;99.90;;;;;;5034152;28;20484;-78
2023/11/30 04:27:17;;;;;;;32.03;16.40;;;-1.90;99.90;;;;;;5017430;28;20511;-78
2023/11/30 04:29:45;;;;;;;26.03;16.10;;;-1.90;99.90;;;;;;5018131;28;20448;-78
2023/11/30 04:32:14;;;;;;;28.60;17.13;;;-1.90;99.90;;;;;;5017020;28;20471;-78
2023/11/30 04:34:42;;;;;;;25.40;16.03;;;-1.90;99.90;;;;;;5017667;28;20886;-78
2023/11/30 04:37:10;;;;;;;28.80;16.20;;;-1.80;99.90;;;;;;5034172;28;21027;-78
2023/11/30 04:39:38;;;;;;;27.23;15.63;;;-1.80;99.90;;;;;;5017201;28;20452;-77
2023/11/30 04:42:08;;;;;;;26.20;16.03;;;-1.80;99.90;;;;;;5033346;28;20476;-77
2023/11/30 04:44:37;;;;;;;36.57;16.63;;;-1.80;99.90;;;;;;5034446;28;20472;-77
2023/11/30 04:47:06;;;;;;;34.93;13.90;;;-1.80;99.90;;;;;;5033855;28;20456;-78
2023/11/30 04:49:35;;;;;;;27.40;15.57;;;-1.80;99.90;;;;;;5017485;28;20447;-77
2023/11/30 04:52:03;;;;;;;26.90;16.50;;;-1.80;99.90;;;;;;5034434;28;20526;-78
2023/11/30 04:54:31;;;;;;;31.27;15.57;;;-1.80;99.90;;;;;;5016956;28;20444;-78
2023/11/30 04:57:01;;;;;;;53.67;16.20;;;-1.80;99.90;;;;;;5017360;28;20456;-78
2023/11/30 04:59:30;;;;;;;26.00;15.27;;;-1.70;99.90;;;;;;5017681;28;20467;-78
2023/11/30 05:01:59;;;;;;;23.33;14.80;;;-1.70;99.90;;;;;;5034595;28;20571;-78
2023/11/30 05:04:27;;;;;;;36.97;16.13;;;-1.70;99.90;;;;;;5034228;28;20451;-78
2023/11/30 05:06:55;;;;;;;30.47;14.23;;;-1.70;99.90;;;;;;5033838;28;20459;-78
2023/11/30 05:09:24;;;;;;;35.13;13.47;;;-1.70;99.90;;;;;;5017695;28;21048;-79
2023/11/30 05:11:52;;;;;;;34.03;16.63;;;-1.70;99.90;;;;;;5022198;28;20997;-79
2023/11/30 05:14:20;;;;;;;22.70;12.60;;;-1.70;99.90;;;;;;5023600;28;20563;-78
2023/11/30 05:16:50;;;;;;;22.70;14.43;;;-1.70;99.90;;;;;;5022112;28;20543;-78
2023/11/30 05:19:18;;;;;;;45.60;14.23;;;-1.70;99.90;;;;;;5022257;28;20443;-79
2023/11/30 05:21:46;;;;;;;27.83;11.70;;;-1.70;99.90;;;;;;5025420;28;20521;-79
2023/11/30 05:24:14;;;;;;;30.60;14.70;;;-1.70;99.90;;;;;;5025466;28;20532;-79
2023/11/30 05:26:43;;;;;;;34.10;14.90;;;-1.70;99.90;;;;;;5024828;28;20466;-78
2023/11/30 05:29:11;;;;;;;23.43;14.70;;;-1.70;99.90;;;;;;5025122;28;20491;-78
2023/11/30 05:31:39;;;;;;;21.50;13.00;;;-1.70;99.90;;;;;;5025838;28;20440;-78
2023/11/30 05:34:09;;;;;;;23.47;14.90;;;-1.70;99.90;;;;;;5041324;28;20517;-79
2023/11/30 05:36:37;;;;;;;38.63;16.43;;;-1.70;99.90;;;;;;5041336;28;20866;-79
2023/11/30 05:39:06;;;;;;;26.93;14.13;;;-1.70;99.90;;;;;;5040507;28;20452;-78
2023/11/30 05:41:34;;;;;;;27.37;14.10;;;-1.70;99.90;;;;;;5024133;28;20439;-79
2023/11/30 05:44:03;;;;;;;23.83;14.80;;;-1.70;99.90;;;;;;5041185;28;20822;-78
2023/11/30 05:46:32;;;;;;;24.97;15.17;;;-1.70;99.90;;;;;;5040438;28;20542;-78
2023/11/30 05:49:00;;;;;;;27.17;13.90;;;-1.70;99.90;;;;;;5025504;28;20468;-78
2023/11/30 05:51:30;;;;;;;52.20;14.57;;;-1.70;99.90;;;;;;5024331;28;20448;-78
2023/11/30 05:53:58;;;;;;;65.67;16.30;;;-1.70;99.90;;;;;;5043550;28;20455;-79
2023/11/30 05:56:26;;;;;;;29.53;13.87;;;-1.70;99.90;;;;;;5029224;28;20457;-79
2023/11/30 05:58:54;;;;;;;25.57;13.47;;;-1.70;99.90;;;;;;5042926;28;20456;-79
2023/11/30 06:01:23;;;;;;;27.47;13.50;;;-1.70;99.90;;;;;;5043407;28;20491;-78
2023/11/30 06:03:51;;;;;;;37.30;14.33;;;-1.70;99.90;;;;;;5025918;28;20487;-79
2023/11/30 06:06:20;;;;;;;42.70;14.70;;;-1.80;99.90;;;;;;5025488;28;20475;-78
2023/11/30 06:08:49;;;;;;;46.43;16.23;;;-1.80;99.90;;;;;;5022492;28;20468;-78
2023/11/30 06:11:17;;;;;;;48.20;14.13;;;-1.70;99.90;;;;;;5037217;28;20499;-78
2023/11/30 06:13:46;;;;;;;30.00;14.20;;;-1.80;99.90;;;;;;5019899;28;20525;-78
2023/11/30 06:16:15;;;;;;;44.33;15.00;;;-1.80;99.90;;;;;;5036535;28;20903;-78
2023/11/30 06:18:43;;;;;;;35.50;14.30;;;-1.80;99.90;;;;;;5036310;28;20479;-78
2023/11/30 06:21:12;;;;;;;44.30;13.90;;;-1.80;99.90;;;;;;5037117;28;20506;-78
2023/11/30 06:23:40;;;;;;;58.83;18.33;;;-1.80;99.90;;;;;;5036282;28;20996;-78
2023/11/30 06:26:10;;;;;;;34.57;13.87;;;-1.80;99.90;;;;;;5020108;28;20452;-78
2023/11/30 06:28:38;;;;;;;41.13;15.00;;;-1.80;99.90;;;;;;5036377;28;20479;-78
2023/11/30 06:31:07;;;;;;;44.07;13.90;;;-1.80;99.90;;;;;;5020004;28;20456;-78
2023/11/30 06:33:35;;;;;;;41.93;14.47;;;-1.80;99.90;;;;;;5035882;28;20475;-78
2023/11/30 06:36:04;;;;;;;22.77;12.27;;;-1.80;99.90;;;;;;5020273;28;20451;-78
2023/11/30 06:38:33;;;;;;;38.87;14.33;;;-1.80;99.90;;;;;;5020273;28;20444;-78
2023/11/30 06:41:02;;;;;;;42.43;14.93;;;-1.80;99.90;;;;;;5040214;28;20475;-79
2023/11/30 06:43:32;;;;;;;22.90;12.43;;;-1.80;99.90;;;;;;5024455;28;20989;-78
2023/11/30 06:46:00;;;;;;;51.50;14.60;;;-1.80;99.90;;;;;;5024835;28;21022;-78
2023/11/30 06:48:28;;;;;;;54.20;19.53;;;-1.80;99.90;;;;;;5027057;28;20467;-79
2023/11/30 06:50:56;;;;;;;25.33;14.43;;;-1.80;99.90;;;;;;5025132;28;20546;-79
2023/11/30 06:53:25;;;;;;;46.90;16.83;;;-1.80;99.90;;;;;;5040063;28;20522;-79
2023/11/30 06:55:53;;;;;;;58.27;14.53;;;-1.70;99.90;;;;;;5022666;28;20495;-79
2023/11/30 06:58:21;;;;;;;50.90;16.43;;;-1.70;99.90;;;;;;5022615;28;20787;-78
2023/11/30 07:00:51;;;;;;;49.93;13.90;;;-1.70;99.90;;;;;;5023505;28;20482;-78
2023/11/30 07:03:19;;;;;;;25.10;12.57;;;-1.70;99.90;;;;;;5024482;28;20459;-78
2023/11/30 07:05:48;;;;;;;46.97;14.23;;;-1.70;99.90;;;;;;5025476;28;20451;-79
2023/11/30 07:08:16;;;;;;;41.47;14.30;;;-1.80;99.90;;;;;;5022356;28;20499;-79
2023/11/30 07:10:44;;;;;;;39.07;13.67;;;-1.70;99.90;;;;;;5020432;28;20535;-78
2023/11/30 07:13:12;;;;;;;22.23;12.10;;;-1.70;99.90;;;;;;5024771;28;20463;-79
2023/11/30 07:15:40;;;;;;;23.90;15.13;;;-1.70;99.90;;;;;;5022750;28;20875;-80
2023/11/30 07:18:10;;;;;;;36.97;14.20;;;-1.70;99.90;;;;;;5019562;28;20478;-78
2023/11/30 07:20:39;;;;;;;26.90;12.60;;;-1.70;99.90;;;;;;5023623;28;20428;-79
2023/11/30 07:23:10;;;;;;;40.70;14.73;;;-1.70;99.90;;;;;;5024403;28;20468;-79
2023/11/30 07:25:38;;;;;;;49.93;13.20;;;-1.70;99.90;;;;;;5036372;28;20906;-80
2023/11/30 07:28:06;;;;;;;33.20;12.57;;;-1.70;99.90;;;;;;5020314;28;20517;-80
2023/11/30 07:30:34;;;;;;;29.37;13.20;;;-1.70;99.90;;;;;;5023232;28;20496;-79
2023/11/30 07:33:04;;;;;;;35.63;12.67;;;-1.70;99.90;;;;;;5021545;28;20546;-78
2023/11/30 07:35:36;;;;;;;30.27;13.97;;;-1.70;99.90;;;;;;5025269;28;20500;-78
2023/11/30 07:38:04;;;;;;;30.03;12.60;;;-1.70;99.90;;;;;;5023030;28;20444;-79
2023/11/30 07:40:33;;;;;;;30.17;12.63;;;-1.70;99.90;;;;;;5040225;28;20506;-78
2023/11/30 07:43:01;;;;;;;19.10;11.67;;;-1.70;99.90;;;;;;5022802;28;20526;-78
2023/11/30 07:45:30;;;;;;;58.70;14.17;;;-1.70;99.90;;;;;;5022456;28;20807;-78
2023/11/30 07:47:59;;;;;;;24.70;13.00;;;-1.70;99.90;;;;;;5022148;28;20958;-78
2023/11/30 07:50:28;;;;;;;32.30;13.47;;;-1.70;99.90;;;;;;5022730;28;20471;-80
2023/11/30 07:52:57;;;;;;;40.03;13.70;;;-1.70;99.90;;;;;;5024017;28;20483;-78
2023/11/30 07:55:26;;;;;;;28.60;11.17;;;-1.70;99.90;;;;;;5023124;28;20475;-79
2023/11/30 07:57:54;;;;;;;16.00;10.67;;;-1.60;99.90;;;;;;5040324;28;20452;-78
2023/11/30 08:00:24;;;;;;;25.23;10.53;;;-1.60;99.90;;;;;;5039348;28;20448;-79
2023/11/30 08:02:54;;;;;;;18.83;9.80;;;-1.60;99.90;;;;;;5024877;28;20471;-79
2023/11/30 08:05:24;;;;;;;29.77;12.13;;;-1.60;99.90;;;;;;5026500;28;20432;-79
2023/11/30 08:07:54;;;;;;;14.43;9.07;;;-1.60;99.90;;;;;;5027538;28;20511;-79
2023/11/30 08:10:25;;;;;;;25.20;11.97;;;-1.50;99.90;;;;;;5023685;28;20475;-79
2023/11/30 08:12:53;;;;;;;41.00;11.60;;;-1.50;99.90;;;;;;5038918;28;20499;-79
2023/11/30 08:15:22;;;;;;;16.33;9.60;;;-1.50;99.90;;;;;;5025411;28;20451;-79
2023/11/30 08:17:50;;;;;;;19.43;11.33;;;-1.50;99.90;;;;;;5023614;28;20486;-79
2023/11/30 08:20:18;;;;;;;15.07;9.97;;;-1.50;99.90;;;;;;5039981;28;20448;-79
2023/11/30 08:22:47;;;;;;;34.37;9.57;;;-1.50;99.90;;;;;;5023418;28;20467;-79
2023/11/30 08:25:16;;;;;;;15.83;9.00;;;-1.40;99.90;;;;;;5023736;28;20901;-79
2023/11/30 08:27:45;;;;;;;21.70;10.60;;;-1.40;99.90;;;;;;5023571;28;20455;-79
2023/11/30 08:30:19;;;;;;;16.67;8.80;;;-1.40;99.90;;;;;;5023701;28;20554;-80
2023/11/30 08:32:48;;;;;;;18.37;10.00;;;-1.40;99.90;;;;;;5024189;28;20535;-80
2023/11/30 08:35:17;;;;;;;18.50;9.40;;;-1.40;99.90;;;;;;5024547;28;20946;-80
2023/11/30 08:37:45;;;;;;;17.33;9.70;;;-1.40;99.90;;;;;;5024150;28;20439;-80
2023/11/30 08:40:13;;;;;;;16.20;10.00;;;-1.40;99.90;;;;;;5022587;28;20472;-80
2023/11/30 08:42:41;;;;;;;16.57;10.33;;;-1.30;99.90;;;;;;5039036;28;20579;-80
2023/11/30 08:45:11;;;;;;;20.57;9.67;;;-1.30;99.90;;;;;;5022340;28;20448;-80
2023/11/30 08:47:39;;;;;;;19.10;9.40;;;-1.30;99.90;;;;;;5024460;28;20542;-80
2023/11/30 08:50:08;;;;;;;32.67;11.00;;;-1.30;99.90;;;;;;5022775;28;20506;-80
2023/11/30 08:52:37;;;;;;;18.40;9.43;;;-1.30;99.90;;;;;;5022444;28;20498;-80
2023/11/30 08:55:05;;;;;;;17.17;10.30;;;-1.30;99.90;;;;;;5022437;28;20831;-80
2023/11/30 08:57:33;;;;;;;19.40;10.87;;;-1.30;99.90;;;;;;5027799;28;20459;-80
2023/11/30 09:00:05;;;;;;;18.63;10.70;;;-1.30;99.90;;;;;;5025895;28;20499;-80
2023/11/30 09:02:36;;;;;;;19.20;9.83;;;-1.30;99.90;;;;;;5042409;28;20471;-80
2023/11/30 09:05:05;;;;;;;17.30;9.80;;;-1.30;99.90;;;;;;5025921;28;20447;-80
2023/11/30 09:07:33;;;;;;;24.80;12.87;;;-1.30;99.90;;;;;;5025849;28;20466;-80
2023/11/30 09:10:02;;;;;;;18.43;10.10;;;-1.20;99.90;;;;;;5041878;28;20472;-80
2023/11/30 09:12:30;;;;;;;16.37;10.00;;;-1.20;99.90;;;;;;5025046;28;20555;-80
2023/11/30 09:14:59;;;;;;;25.50;13.07;;;-1.20;99.90;;;;;;5025278;28;20465;-80
2023/11/30 09:17:29;;;;;;;17.87;10.07;;;-1.10;99.90;;;;;;5025077;28;20964;-80
2023/11/30 09:19:59;;;;;;;16.23;9.00;;;-1.10;99.90;;;;;;5042755;28;20451;-81
2023/11/30 09:22:28;;;;;;;20.70;9.90;;;-1.10;99.90;;;;;;5025582;28;21030;-81
2023/11/30 09:24:56;;;;;;;15.90;9.73;;;-1.10;99.90;;;;;;5026948;28;20462;-80
2023/11/30 09:27:24;;;;;;;19.03;10.47;;;-1.10;99.90;;;;;;5024401;28;20530;-81
2023/11/30 09:29:52;;;;;;;18.63;11.20;;;-1.10;99.90;;;;;;5024013;28;20476;-81
2023/11/30 09:32:22;;;;;;;19.83;11.70;;;-1.20;99.90;;;;;;5040090;28;20468;-80
2023/11/30 09:34:50;;;;;;;22.63;10.80;;;-1.10;99.90;;;;;;5024096;28;20889;-81
2023/11/30 09:37:20;;;;;;;22.33;12.60;;;-1.00;99.90;;;;;;5040707;28;20470;-80
2023/11/30 09:39:49;;;;;;;21.63;11.90;;;-1.10;99.90;;;;;;5023946;28;20893;-81
2023/11/30 09:42:18;;;;;;;19.97;11.07;;;-1.10;99.90;;;;;;5040328;28;20499;-81
2023/11/30 09:44:47;;;;;;;22.83;11.60;;;-1.00;99.90;;;;;;5040969;28;20929;-80
2023/11/30 09:47:16;;;;;;;19.07;11.10;;;-1.00;99.90;;;;;;5039362;28;20539;-80
2023/11/30 09:49:44;;;;;;;19.57;10.90;;;-1.00;99.90;;;;;;5023790;28;20495;-79
2023/11/30 09:52:13;;;;;;;18.70;11.33;;;-0.90;99.90;;;;;;5026692;28;20468;-79
2023/11/30 09:54:43;;;;;;;22.47;10.57;;;-0.90;99.90;;;;;;5026945;28;20876;-79
2023/11/30 09:57:14;;;;;;;20.37;11.40;;;-0.90;99.90;;;;;;5023636;28;20451;-80
2023/11/30 09:59:42;;;;;;;21.73;11.50;;;-0.90;99.90;;;;;;5025305;28;21036;-81
2023/11/30 10:02:10;;;;;;;17.00;11.60;;;-0.90;99.90;;;;;;5024956;28;20475;-81
2023/11/30 10:04:40;;;;;;;22.23;11.70;;;-0.90;99.90;;;;;;5024813;28;20451;-81
2023/11/30 10:07:08;;;;;;;19.97;11.17;;;-0.80;99.90;;;;;;5023693;28;20436;-81
2023/11/30 10:09:37;;;;;;;18.10;9.93;;;-0.80;99.90;;;;;;5024836;28;20818;-81
2023/11/30 10:12:07;;;;;;;24.23;12.67;;;-0.80;99.90;;;;;;5024433;28;20479;-81
2023/11/30 10:14:35;;;;;;;22.63;12.50;;;-0.80;99.90;;;;;;5024291;28;20428;-80
2023/11/30 10:17:04;;;;;;;23.20;14.00;;;-0.80;99.90;;;;;;5024550;28;20946;-80
2023/11/30 10:19:32;;;;;;;20.37;12.90;;;-0.80;99.90;;;;;;5023813;28;20535;-79
2023/11/30 10:22:01;;;;;;;28.43;14.73;;;-0.80;99.90;;;;;;5040052;28;20574;-79
2023/11/30 10:24:29;;;;;;;23.73;13.53;;;-0.70;99.90;;;;;;5039890;28;20456;-79
2023/11/30 10:27:00;;;;;;;25.40;13.70;;;-0.70;99.90;;;;;;5039407;28;20546;-79
2023/11/30 10:29:31;;;;;;;22.07;12.23;;;-0.70;99.90;;;;;;5038012;28;20441;-79
2023/11/30 10:32:03;;;;;;;21.67;12.37;;;-0.70;99.90;;;;;;5022132;28;20483;-81
2023/11/30 10:34:37;;;;;;;22.70;12.07;;;-0.70;99.90;;;;;;5038574;28;20491;-81
2023/11/30 10:37:07;;;;;;;27.40;12.43;;;-0.70;99.90;;;;;;5022194;28;20446;-79
2023/11/30 10:39:42;;;;;;;22.60;11.50;;;-0.70;99.90;;;;;;5022021;28;20456;-82
2023/11/30 10:42:14;;;;;;;21.23;12.93;;;-0.80;99.90;;;;;;5022233;28;20471;-79
2023/11/30 10:44:49;;;;;;;23.20;12.47;;;-0.70;99.90;;;;;;5038525;28;20448;-79
2023/11/30 10:47:19;;;;;;;18.27;12.20;;;-0.70;99.90;;;;;;5021999;28;20463;-81
2023/11/30 10:49:48;;;;;;;21.10;13.33;;;-0.70;99.90;;;;;;5021288;28;20973;-81
2023/11/30 10:52:17;;;;;;;22.23;13.33;;;-0.70;99.90;;;;;;5021490;28;20487;-81
2023/11/30 10:54:51;;;;;;;27.90;13.50;;;-0.50;99.90;;;;;;5037463;28;20458;-81
2023/11/30 10:57:21;;;;;;;19.53;12.17;;;-0.70;99.90;;;;;;5021076;28;20486;-81
2023/11/30 10:59:58;;;;;;;18.07;11.30;;;-0.70;99.90;;;;;;5036796;28;20961;-80
2023/11/30 11:02:35;;;;;;;20.30;10.83;;;-0.70;99.90;;;;;;5039134;28;20951;-79
2023/11/30 11:05:09;;;;;;;22.30;13.43;;;-0.70;99.90;;;;;;5037380;28;20450;-79
2023/11/30 11:07:37;;;;;;;20.63;11.53;;;-0.60;99.90;;;;;;5022088;28;20535;-79
2023/11/30 11:10:07;;;;;;;21.30;12.70;;;-0.70;99.90;;;;;;5020584;28;20487;-79
2023/11/30 11:12:39;;;;;;;21.33;12.30;;;-0.70;99.90;;;;;;5020921;28;20476;-80
2023/11/30 11:15:12;;;;;;;21.40;12.67;;;-0.70;99.90;;;;;;5020111;28;20516;-79
2023/11/30 11:17:48;;;;;;;22.77;12.07;;;-0.70;99.90;;;;;;5020920;28;20448;-79
2023/11/30 11:20:23;;;;;;;20.67;13.57;;;-0.60;99.90;;;;;;5020341;28;20443;-79
2023/11/30 11:22:58;;;;;;;17.70;12.40;;;-0.60;99.90;;;;;;5022389;28;20456;-80
2023/11/30 11:25:26;;;;;;;16.23;9.93;;;-0.60;99.90;;;;;;5037295;28;20547;-79
2023/11/30 11:27:56;;;;;;;15.07;10.80;;;-0.50;99.90;;;;;;5021629;28;20467;-80
2023/11/30 11:30:26;;;;;;;18.50;12.23;;;-0.40;99.90;;;;;;5021437;28;20507;-80
2023/11/30 11:32:58;;;;;;;17.40;10.93;;;-0.50;99.90;;;;;;5037846;28;21080;-79
2023/11/30 11:35:27;;;;;;;18.00;11.00;;;-0.50;99.90;;;;;;5038190;28;20471;-79
2023/11/30 11:37:59;;;;;;;17.47;10.23;;;-0.40;99.90;;;;;;5023165;28;20435;-80
2023/11/30 11:40:28;;;;;;;22.20;12.70;;;-0.40;99.90;;;;;;5020562;28;20444;-80
2023/11/30 11:42:56;;;;;;;19.00;12.20;;;-0.40;99.90;;;;;;5022486;28;20474;-81
2023/11/30 11:45:26;;;;;;;18.90;12.50;;;-0.40;99.90;;;;;;5041578;28;20461;-80
2023/11/30 11:47:55;;;;;;;21.00;12.30;;;-0.40;99.90;;;;;;5021615;28;20436;-80
2023/11/30 11:50:23;;;;;;;26.73;15.13;;;-0.40;99.90;;;;;;5024680;28;20484;-80
2023/11/30 11:52:58;;;;;;;20.90;12.30;;;-0.30;99.90;;;;;;5025358;28;20495;-80
2023/11/30 11:55:27;;;;;;;22.00;12.30;;;-0.30;99.90;;;;;;5026273;28;20462;-80
2023/11/30 11:57:55;;;;;;;23.60;12.33;;;-0.30;99.90;;;;;;5026617;28;20448;-81
2023/11/30 12:00:25;;;;;;;19.43;12.47;;;-0.30;99.90;;;;;;5043344;28;20459;-80
2023/11/30 12:03:05;;;;;;;18.80;11.03;;;-0.30;99.90;;;;;;5026794;28;20463;-80
2023/11/30 12:05:34;;;;;;;19.27;11.83;;;-0.30;99.90;;;;;;5025997;28;20440;-80
2023/11/30 12:08:02;;;;;;;16.87;10.80;;;-0.40;99.90;;;;;;5042053;28;20482;-80
2023/11/30 12:10:32;;;;;;;16.00;11.23;;;-0.40;99.90;;;;;;5025363;28;20484;-80
2023/11/30 12:13:02;;;;;;;21.80;12.70;;;-0.50;99.90;;;;;;5042381;28;20537;-80
2023/11/30 12:15:33;;;;;;;21.13;12.30;;;-0.40;99.90;;;;;;5042366;28;20447;-80
2023/11/30 12:18:01;;;;;;;19.30;11.67;;;-0.40;99.90;;;;;;5042053;28;20466;-80
2023/11/30 12:20:30;;;;;;;21.50;12.10;;;-0.40;99.90;;;;;;5024638;28;20440;-80
2023/11/30 12:22:59;;;;;;;18.70;12.10;;;-0.40;99.90;;;;;;5024630;28;20522;-80
2023/11/30 12:25:28;;;;;;;22.97;14.20;;;-0.40;99.90;;;;;;5024728;28;20938;-81
2023/11/30 12:27:56;;;;;;;21.20;12.90;;;-0.40;99.90;;;;;;5040278;28;20479;-82
2023/11/30 12:30:24;;;;;;;18.33;12.90;;;-0.40;99.90;;;;;;5025142;28;20466;-82
2023/11/30 12:32:55;;;;;;;17.47;11.23;;;-0.40;99.90;;;;;;5041016;28;20480;-80
2023/11/30 12:35:24;;;;;;;20.00;14.10;;;-0.40;99.90;;;;;;5040285;28;20965;-79
2023/11/30 12:37:52;;;;;;;21.00;12.23;;;-0.40;99.90;;;;;;5024576;28;20479;-79